Harveys Lake, Pennsylvania
Current Conditions -  °F | °C
As of 12:54 PM on Friday 28 Nov 2014 (Local Time) from KAVP Reporting Station
Few Clouds Few Clouds  
Wind Chill: 16°   Ceiling: Unl
Heat Index: 27°   Visibility: 10mi
Dew Point: 11°   Wind: 13mph
Humidity: 51%   Direction: 310°NW
Pressure: 30.18"   Gusts: 23mph
Location:  41.38°N, 76.02°W
Report Text: KAVP 281754Z 31011G20KT 10SM FEW043 M03/M12 A3018 RMK AO2 PK WND 31026/1714 SLP229 60000 T10281117 11017 21039 58006
Loading
Personal Weather Stations






























Interactive Weather Map New forecast layout! Learn more

10-Day Weather Forecast

Advertisements
Track Severe Weather on mobile